OICK  Khoram Abad  Airport

Iran

Add Bookmark
ICAO OICK
IATA KHD
Type Airport
Status Operational
Latitude
33° 26' 7" N
33.435398
Longitude
48° 16' 58" E
48.282902
Local (DST + 5) UTC (GMT + 4)
Aug 31, 2015 01:14 Aug 31, 2015 08:44
Sunrise-Sunset Local UTC
Begin Civil Twilight 06:23 01:53
Sunrise 06:48 02:18
Sunset 07:45 15:15
End Civil Twilight 08:10 15:40
VFR
VFR
MVFR
MVFR
IFR
IFR
LIFR
LIFR
Unknown
Unavailable

Current Weather

METAR Observed VFR
OICK 310800Z 00000KT 9999 FEW040 35/00 Q1016 Mon, Aug 31, 2015 @ 08:00 UTC
(44 Minutes ago)
Visual Flight Rules
Wind Visibility Clouds Conditions
Calm 10 km or more
  • Few at 4,000 ft AGL
  • No significant weather
Temperatures Readings Precipitation
Current Temp
35°C
95°F
Dewpoint
0°C
32°F
Humidity 11%
Altimeter 30" Hg
Sea Level Pressure 1,016 mb
Field Elevation
1,155 m
3,789 ft
None Recorded
-
-

CheckWX.com is intended as a tool to help pilots better visualize weather data. It is not intended as a substitute for an official weather briefing obtained from a Flight Service Station. CheckWX.com does not meet the FAA requirements for an official pre-flight weather briefing. Therefore, it's important that pilots still call and obtain an official FSS pre-flight weather briefing.

© 2007-2015 CheckWX.com
08:44:28 UTC